Historique des mesures à Cassis (13260), France
Quotidien Résumé Avril 13, 2017 Unités:  Métrique    US   Métrique/US
« Précédent (Jour)
Suivant (Jour) »
Quotidien Hebdomadaire Mensuel Annuel Période au choix
  Maximum: Minimum: Moyenne:
Température: TemperatureC °C 13.3 °C 17.6 °C
Point de rosée: DewpointC °C 5.8 °C 8.3 °C
Humidité: Humidity % 37 % 53 %
Vitesse du vent: 0 km/h 0 km/h 15.3 km/h
Rafales: 0 km/h - -
Vent:- - SSW
Pression: PressurehPa hPa 1007.3 hPa -
Précipitations: 0.0 mm    
Historical Graphs
 
 
Mesures pour : Avril 13, 2017
Heure Temperature Point de rosée Pression Vent Vitesse du vent Rafales Humidité Pluie (par heure) Conditions
TemperatureC °C DewpointC °C PressurehPa hPa Calm     Humidity % HourlyPrecipMM mm SoftwareType W/m2
00:11 13.8 °C 10.2 °C 1013.8 hPa NNW 25.4 km/h 25.4 km/h 79 % 0.0 mm open2300-1.11 W/m2
01:11 13.3 °C 9.5 °C 1013.8 hPa Calm   3.4 km/h 78 % 0.0 mm open2300-1.11 W/m2
02:11 13.4 °C 9.6 °C 1013.4 hPa Calm     78 % 0.0 mm open2300-1.11 W/m2
03:11 13.6 °C 9.2 °C 1012.4 hPa Calm     75 % 0.0 mm open2300-1.11 W/m2
04:11 13.5 °C 8.7 °C 1011.7 hPa North 8 km/h 8 km/h 73 % 0.0 mm open2300-1.11 W/m2
05:11 13.4 °C 8.2 °C 1011.1 hPa Calm     71 % 0.0 mm open2300-1.11 W/m2
06:11 14.2 °C 7.7 °C 1010.4 hPa South 4.7 km/h 4.7 km/h 65 % 0.0 mm open2300-1.11 W/m2
07:11 13.3 °C 6.8 °C 1010.4 hPa Calm     65 % 0.0 mm open2300-1.11 W/m2
08:11 16.1 °C 7.6 °C 1010.4 hPa North 3.4 km/h 26.7 km/h 57 % 0.0 mm open2300-1.11 W/m2
09:11 18.1 °C 7.5 °C 1010.0 hPa NW 21.6 km/h 21.6 km/h 50 % 0.0 mm open2300-1.11 W/m2
10:11 19.4 °C 6.1 °C 1010.0 hPa NNW 20.9 km/h 39.9 km/h 42 % 0.0 mm open2300-1.11 W/m2
11:11 21.1 °C 5.8 °C 1009.7 hPa North 25.4 km/h 27.2 km/h 37 % 0.0 mm open2300-1.11 W/m2
12:11 21.5 °C 7.3 °C 1009.4 hPa North 48.6 km/h 54.9 km/h 40 % 0.0 mm open2300-1.11 W/m2
13:11 22.2 °C 8.0 °C 1009.0 hPa North 12.2 km/h 19.6 km/h 40 % 0.0 mm open2300-1.11 W/m2
14:11 22.8 °C 8.5 °C 1008.7 hPa NNW 21.6 km/h 21.6 km/h 40 % 0.0 mm open2300-1.11 W/m2
15:11 23.6 °C 8.4 °C 1008.0 hPa North 33.6 km/h 42.2 km/h 38 % 0.0 mm open2300-1.11 W/m2
16:11 24.1 °C 8.4 °C 1007.7 hPa NNW 5.1 km/h 50.5 km/h 37 % 0.0 mm open2300-1.11 W/m2
17:11 23.6 °C 9.2 °C 1007.3 hPa NW 54.9 km/h 54.9 km/h 40 % 0.0 mm open2300-1.11 W/m2
18:11 23.3 °C 9.9 °C 1007.3 hPa NNW 23.8 km/h 49.2 km/h 43 % 0.0 mm open2300-1.11 W/m2
19:11 21.4 °C 9.9 °C 1007.7 hPa WNW 23.8 km/h 29.5 km/h 48 % 0.0 mm open2300-1.11 W/m2
20:11 20.4 °C 9.3 °C 1008.0 hPa WNW 29 km/h 29 km/h 49 % 0.0 mm open2300-1.11 W/m2
21:11 19.5 °C 9.7 °C 1008.7 hPa Calm     53 % 0.0 mm open2300-1.11 W/m2
22:11 18.4 °C 11.0 °C 1009.4 hPa WNW 18.7 km/h 18.7 km/h 62 % 0.0 mm open2300-1.11 W/m2
23:11 16.9 °C 10.3 °C 1009.4 hPa Calm     65 % 0.0 mm open2300-1.11 W/m2
Observations météo à CASSIS
WU-History script by Weather Underground - 1 mb